Time;durP1;ratioP1;P1;durP2;ratioP2;P2;SDS_P1;SDS_P2;PMS_P1;PMS_P2;Temp;Humidity;BMP_temperature;BMP_pressure;BME280_temperature;BME280_humidity;BME280_pressure;Samples;Min_cycle;Max_cycle;Signal;HPM_P1;HPM_P2
2021/04/26 00:01:54;;;;;;;24.73;23.33;;;8.10;66.10;;;;;;5093993;28;20222;-76
2021/04/26 00:04:21;;;;;;;25.73;24.10;;;8.10;61.20;;;;;;5093871;28;20282;-75
2021/04/26 00:06:47;;;;;;;25.23;23.55;;;8.10;60.80;;;;;;5092773;28;20205;-76
2021/04/26 00:09:14;;;;;;;25.25;23.65;;;8.00;60.80;;;;;;5093651;28;20201;-76
2021/04/26 00:11:40;;;;;;;25.50;24.00;;;8.00;61.00;;;;;;5093915;28;20215;-76
2021/04/26 00:14:07;;;;;;;24.85;23.30;;;7.90;61.10;;;;;;5093590;28;20618;-75
2021/04/26 00:16:34;;;;;;;25.30;23.70;;;7.90;61.90;;;;;;5093212;28;20196;-76
2021/04/26 00:19:01;;;;;;;26.15;24.48;;;7.90;62.40;;;;;;5093654;28;20325;-76
2021/04/26 00:21:27;;;;;;;26.23;24.38;;;8.00;61.60;;;;;;5093641;28;20300;-77
2021/04/26 00:23:54;;;;;;;25.33;23.73;;;8.00;60.50;;;;;;5092947;28;20553;-77
2021/04/26 00:26:20;;;;;;;26.25;24.42;;;8.00;59.60;;;;;;5093175;28;20199;-76
2021/04/26 00:28:47;;;;;;;25.55;23.95;;;8.10;58.80;;;;;;5093334;28;20649;-76
2021/04/26 00:31:13;;;;;;;25.75;24.25;;;8.20;58.30;;;;;;5093452;28;20211;-76
2021/04/26 00:33:39;;;;;;;26.40;24.80;;;8.30;58.10;;;;;;5093387;28;20784;-76
2021/04/26 00:36:07;;;;;;;27.65;25.00;;;8.40;57.50;;;;;;5092808;28;20209;-76
2021/04/26 00:38:33;;;;;;;25.10;23.67;;;8.40;57.50;;;;;;5093350;28;20661;-76
2021/04/26 00:41:00;;;;;;;24.80;23.30;;;8.40;57.50;;;;;;5093337;28;20815;-76
2021/04/26 00:43:26;;;;;;;25.33;23.58;;;8.50;57.30;;;;;;5093354;28;20195;-76
2021/04/26 00:45:53;;;;;;;25.05;23.35;;;8.40;57.70;;;;;;5092838;28;20327;-76
2021/04/26 00:48:19;;;;;;;25.92;24.05;;;8.40;57.80;;;;;;5072649;28;620156;-76
2021/04/26 00:50:46;;;;;;;25.65;23.80;;;8.40;58.20;;;;;;5095828;28;20258;-76
2021/04/26 00:53:13;;;;;;;27.23;24.35;;;8.40;58.50;;;;;;5097424;28;20211;-77
2021/04/26 00:55:41;;;;;;;25.10;23.50;;;8.40;58.10;;;;;;5094256;28;20198;-76
2021/04/26 00:58:08;;;;;;;24.52;23.02;;;8.40;58.20;;;;;;5094034;28;20601;-76
2021/04/26 01:00:35;;;;;;;26.17;24.05;;;8.40;58.20;;;;;;5094022;28;20264;-77
2021/04/26 01:03:01;;;;;;;26.00;24.45;;;8.40;58.40;;;;;;5093728;28;20327;-77
2021/04/26 01:05:31;;;;;;;25.33;23.70;;;8.40;58.60;;;;;;5093197;28;20198;-77
2021/04/26 01:07:58;;;;;;;25.42;23.67;;;8.30;58.90;;;;;;5093801;28;20194;-76
2021/04/26 01:10:28;;;;;;;26.05;24.38;;;8.40;58.90;;;;;;5093774;28;20214;-76
2021/04/26 01:13:34;;;;;;;25.63;24.00;;;8.40;59.00;;;;;;5093745;28;20316;-76
2021/04/26 01:16:08;;;;;;;26.38;24.40;;;8.30;59.30;;;;;;5059170;28;20549;-76
2021/04/26 01:18:42;;;;;;;25.95;24.30;;;8.20;59.80;;;;;;5092944;28;20556;-76
2021/04/26 01:21:56;;;;;;;26.02;24.42;;;8.20;59.90;;;;;;5093409;28;20696;-77
2021/04/26 01:24:50;;;;;;;26.70;24.90;;;8.20;60.90;;;;;;5093153;28;20226;-76
2021/04/26 01:27:27;;;;;;;25.10;23.50;;;8.20;60.50;;;;;;5093092;28;20218;-77
2021/04/26 01:30:12;;;;;;;27.13;25.33;;;8.20;60.50;;;;;;5093304;28;20622;-76
2021/04/26 01:32:43;;;;;;;25.98;24.48;;;8.30;59.90;;;;;;5093504;28;20221;-76
2021/04/26 01:35:12;;;;;;;25.63;24.02;;;8.10;60.50;;;;;;5093069;28;20202;-77
2021/04/26 01:37:41;;;;;;;25.92;24.13;;;8.20;60.20;;;;;;5092805;28;20333;-76
2021/04/26 01:40:12;;;;;;;26.33;24.40;;;8.20;60.10;;;;;;5093063;28;20254;-77
2021/04/26 01:42:40;;;;;;;25.40;23.80;;;8.10;60.50;;;;;;5093277;28;20286;-77
2021/04/26 01:45:10;;;;;;;26.20;24.38;;;8.00;61.00;;;;;;5092818;28;20201;-77
2021/04/26 01:47:37;;;;;;;25.92;24.10;;;8.00;61.30;;;;;;5092375;28;20297;-76
2021/04/26 01:50:07;;;;;;;26.48;24.60;;;7.90;61.40;;;;;;5093073;28;20222;-77
2021/04/26 01:52:35;;;;;;;26.90;25.20;;;7.90;61.40;;;;;;5093081;28;20715;-76
2021/04/26 01:55:02;;;;;;;26.73;25.00;;;7.80;61.50;;;;;;5092833;28;20210;-77
2021/04/26 01:57:30;;;;;;;26.25;24.52;;;7.80;61.70;;;;;;5092272;28;20531;-76
2021/04/26 02:00:00;;;;;;;27.38;25.17;;;7.80;62.40;;;;;;5092765;28;20195;-76
2021/04/26 02:02:27;;;;;;;26.95;24.98;;;7.80;62.90;;;;;;5092934;28;20202;-76
2021/04/26 02:04:55;;;;;;;27.42;25.73;;;7.80;62.40;;;;;;5092757;28;20208;-77
2021/04/26 02:07:23;;;;;;;27.83;26.00;;;7.80;62.50;;;;;;5092297;28;20648;-76
2021/04/26 02:09:51;;;;;;;28.70;26.90;;;7.80;62.60;;;;;;5092418;28;20194;-76
2021/04/26 02:12:17;;;;;;;27.17;25.27;;;7.70;62.70;;;;;;5092752;28;20203;-76
2021/04/26 02:14:44;;;;;;;31.27;28.98;;;7.70;62.70;;;;;;5092537;28;20231;-76
2021/04/26 02:17:11;;;;;;;28.70;26.70;;;7.70;63.10;;;;;;5092120;28;20198;-76
2021/04/26 02:19:37;;;;;;;27.65;25.85;;;7.70;63.80;;;;;;5092458;28;20193;-76
2021/04/26 02:22:04;;;;;;;27.27;25.58;;;7.60;63.50;;;;;;5092708;28;20223;-76
2021/04/26 02:24:32;;;;;;;28.05;26.25;;;7.60;63.40;;;;;;5091737;28;20215;-76
2021/04/26 02:27:00;;;;;;;26.30;24.60;;;7.60;63.40;;;;;;5092052;28;20283;-76
2021/04/26 02:29:26;;;;;;;29.52;27.42;;;7.50;63.60;;;;;;5091996;28;20286;-76
2021/04/26 02:31:59;;;;;;;27.58;25.42;;;7.50;63.70;;;;;;5092599;28;20681;-76
2021/04/26 02:34:29;;;;;;;27.05;25.45;;;7.50;63.70;;;;;;5092396;28;20227;-76
2021/04/26 02:37:02;;;;;;;27.52;25.83;;;7.50;63.90;;;;;;5091777;28;20557;-76
2021/04/26 02:39:30;;;;;;;27.55;25.80;;;7.50;63.90;;;;;;5092297;28;20288;-76
2021/04/26 02:41:58;;;;;;;28.45;26.55;;;7.40;64.10;;;;;;5092323;28;20345;-76
2021/04/26 02:44:26;;;;;;;27.60;25.83;;;7.30;64.30;;;;;;5092444;28;20211;-77
2021/04/26 02:46:59;;;;;;;28.80;26.60;;;7.30;64.50;;;;;;5091692;28;20275;-76
2021/04/26 02:49:27;;;;;;;26.83;25.25;;;7.30;64.60;;;;;;5092191;28;20713;-76
2021/04/26 02:51:54;;;;;;;28.00;26.20;;;7.20;65.10;;;;;;5092053;28;20300;-76
2021/04/26 02:54:22;;;;;;;27.90;25.95;;;7.20;65.10;;;;;;5092209;28;20312;-76
2021/04/26 02:56:50;;;;;;;28.17;26.35;;;7.10;65.30;;;;;;5091652;28;20282;-76
2021/04/26 02:59:20;;;;;;;30.85;28.85;;;7.10;65.50;;;;;;5092240;28;20197;-76
2021/04/26 03:01:48;;;;;;;27.67;26.05;;;7.10;65.40;;;;;;5091958;28;20565;-77
2021/04/26 03:04:16;;;;;;;30.70;28.60;;;7.10;65.60;;;;;;5092046;28;20192;-76
2021/04/26 03:06:44;;;;;;;28.23;26.42;;;7.00;65.70;;;;;;5091473;28;20250;-76
2021/04/26 03:09:12;;;;;;;27.63;25.70;;;6.90;65.80;;;;;;5092042;28;20286;-76
2021/04/26 03:11:38;;;;;;;31.95;29.65;;;6.90;65.60;;;;;;5091817;28;20215;-77
2021/04/26 03:14:05;;;;;;;37.28;35.08;;;6.90;65.60;;;;;;5091945;28;20220;-76
2021/04/26 03:16:33;;;;;;;30.65;28.40;;;6.90;65.80;;;;;;5091255;28;20200;-76
2021/04/26 03:19:00;;;;;;;31.70;29.60;;;6.90;65.80;;;;;;5092015;28;20198;-76
2021/04/26 03:21:27;;;;;;;33.20;28.90;;;6.90;65.40;;;;;;5091870;28;20306;-76
2021/04/26 03:23:55;;;;;;;30.55;28.30;;;7.00;65.10;;;;;;5091608;28;20189;-76
2021/04/26 03:26:21;;;;;;;29.90;27.80;;;6.90;65.60;;;;;;5091353;28;20676;-76
2021/04/26 03:28:49;;;;;;;30.15;28.25;;;6.90;65.70;;;;;;5091675;28;20572;-76
2021/04/26 03:31:16;;;;;;;29.17;27.38;;;6.90;66.00;;;;;;5091678;28;20222;-76
2021/04/26 03:33:44;;;;;;;33.17;30.95;;;6.80;66.40;;;;;;5091892;28;20280;-76
2021/04/26 03:36:11;;;;;;;28.50;26.60;;;6.80;66.00;;;;;;5091329;28;20280;-76
2021/04/26 03:38:38;;;;;;;29.48;27.17;;;6.70;65.70;;;;;;5092015;28;20728;-76
2021/04/26 03:41:05;;;;;;;33.10;30.77;;;6.80;65.20;;;;;;5092957;28;20222;-77
2021/04/26 03:43:31;;;;;;;28.48;26.45;;;6.70;65.10;;;;;;5095405;28;20244;-76
2021/04/26 03:45:59;;;;;;;33.65;31.23;;;6.60;65.10;;;;;;5094934;28;20202;-77
2021/04/26 03:48:26;;;;;;;30.25;28.20;;;6.60;65.40;;;;;;5095352;28;20210;-76
2021/04/26 03:50:53;;;;;;;29.33;27.33;;;6.70;65.30;;;;;;5095308;28;20225;-76
2021/04/26 03:53:19;;;;;;;31.67;29.58;;;6.60;64.90;;;;;;5095279;28;20255;-76
2021/04/26 03:55:46;;;;;;;29.80;27.70;;;6.60;65.10;;;;;;5094721;28;20622;-76
2021/04/26 03:58:12;;;;;;;28.70;26.80;;;6.60;65.10;;;;;;5095056;28;20717;-76
2021/04/26 04:00:39;;;;;;;32.53;30.48;;;6.60;64.90;;;;;;5094902;28;20222;-76
2021/04/26 04:03:06;;;;;;;34.55;32.40;;;6.60;64.80;;;;;;5095111;28;20732;-76
2021/04/26 04:05:33;;;;;;;30.83;28.67;;;6.60;65.10;;;;;;5094406;28;20661;-76
2021/04/26 04:08:00;;;;;;;30.77;28.35;;;6.70;64.80;;;;;;5095010;28;20223;-76
2021/04/26 04:10:27;;;;;;;31.02;28.77;;;6.60;64.60;;;;;;5094788;28;20269;-76
2021/04/26 04:12:53;;;;;;;31.02;28.92;;;6.60;64.90;;;;;;5094939;28;20195;-76
2021/04/26 04:15:20;;;;;;;30.98;28.35;;;6.60;64.80;;;;;;5094752;28;20287;-76
2021/04/26 04:17:46;;;;;;;30.48;28.27;;;6.60;64.90;;;;;;5094532;28;20197;-77
2021/04/26 04:20:13;;;;;;;29.58;27.63;;;6.60;64.70;;;;;;5094837;28;20622;-76
2021/04/26 04:22:40;;;;;;;28.98;26.90;;;6.50;64.70;;;;;;5094725;28;20191;-76
2021/04/26 04:25:10;;;;;;;31.27;29.38;;;6.50;65.10;;;;;;5094233;28;20639;-76
2021/04/26 04:27:37;;;;;;;29.70;27.70;;;6.50;65.00;;;;;;5093917;28;20574;-76
2021/04/26 04:30:05;;;;;;;31.13;28.20;;;6.50;64.70;;;;;;5094274;28;20217;-76
2021/04/26 04:32:31;;;;;;;31.42;29.17;;;6.50;64.40;;;;;;5094545;28;20286;-76
2021/04/26 04:34:58;;;;;;;30.52;28.20;;;6.50;63.00;;;;;;5094280;28;20763;-76
2021/04/26 04:37:24;;;;;;;28.48;26.67;;;6.50;62.90;;;;;;5094027;28;20286;-77
2021/04/26 04:39:51;;;;;;;32.90;31.00;;;6.60;63.20;;;;;;5094329;28;20191;-76
2021/04/26 04:42:18;;;;;;;29.98;27.55;;;6.50;63.60;;;;;;5094362;28;20195;-76
2021/04/26 04:44:44;;;;;;;28.17;26.20;;;6.60;63.60;;;;;;5094182;28;20572;-77
2021/04/26 04:47:11;;;;;;;32.92;30.35;;;6.50;62.70;;;;;;5093502;28;20207;-78
2021/04/26 04:49:37;;;;;;;29.10;26.90;;;6.60;62.80;;;;;;5094270;28;20195;-76
2021/04/26 04:52:04;;;;;;;28.92;27.02;;;6.70;63.00;;;;;;5093162;28;20253;-76
2021/04/26 04:54:31;;;;;;;30.90;28.38;;;6.70;64.90;;;;;;5093672;28;20345;-76
2021/04/26 04:56:57;;;;;;;30.83;28.50;;;6.70;66.40;;;;;;5093506;28;20270;-76
2021/04/26 04:59:25;;;;;;;29.08;27.17;;;6.80;62.50;;;;;;5093986;28;20838;-76
2021/04/26 05:01:51;;;;;;;29.58;27.48;;;6.80;61.50;;;;;;5093962;28;20580;-76
2021/04/26 05:04:17;;;;;;;32.00;29.35;;;6.90;61.80;;;;;;5093880;28;20197;-76
2021/04/26 05:06:44;;;;;;;29.13;27.02;;;7.00;62.20;;;;;;5093345;28;20282;-76
2021/04/26 05:09:10;;;;;;;32.63;29.85;;;7.00;61.00;;;;;;5093672;28;20201;-76
2021/04/26 05:11:37;;;;;;;28.70;26.48;;;7.10;60.50;;;;;;5093675;28;20223;-76
2021/04/26 05:14:04;;;;;;;31.33;28.85;;;7.10;60.80;;;;;;5093708;28;20219;-77
2021/04/26 05:16:32;;;;;;;29.90;28.10;;;7.00;63.00;;;;;;5092993;28;20285;-76
2021/04/26 05:19:00;;;;;;;34.13;28.58;;;7.10;61.40;;;;;;5093655;28;20200;-76
2021/04/26 05:21:27;;;;;;;29.25;27.42;;;7.20;61.00;;;;;;5093460;28;20739;-76
2021/04/26 05:23:55;;;;;;;30.00;27.83;;;7.30;60.70;;;;;;5092976;28;20226;-77
2021/04/26 05:26:22;;;;;;;31.45;29.45;;;7.30;60.70;;;;;;5093044;28;20193;-76
2021/04/26 05:28:48;;;;;;;28.65;26.85;;;7.20;61.90;;;;;;5093024;28;20586;-76
2021/04/26 05:31:15;;;;;;;30.73;28.50;;;7.30;61.20;;;;;;5093416;28;20217;-76
2021/04/26 05:33:42;;;;;;;32.72;29.98;;;7.40;61.40;;;;;;5093259;28;20312;-76
2021/04/26 05:36:08;;;;;;;28.58;26.67;;;7.50;61.60;;;;;;5092610;28;20287;-76
2021/04/26 05:38:35;;;;;;;30.10;27.90;;;7.40;60.70;;;;;;5093129;28;20205;-76
2021/04/26 05:41:01;;;;;;;30.40;27.95;;;7.40;61.20;;;;;;5093182;28;20294;-77
2021/04/26 05:43:27;;;;;;;30.73;28.48;;;7.50;60.90;;;;;;5093149;28;20706;-76
2021/04/26 05:45:54;;;;;;;29.92;27.90;;;7.50;60.60;;;;;;5092557;28;20678;-76
2021/04/26 05:48:20;;;;;;;30.10;28.02;;;7.60;60.40;;;;;;5092846;28;20300;-76
2021/04/26 05:50:48;;;;;;;29.90;27.70;;;7.50;60.30;;;;;;5093006;28;20213;-76
2021/04/26 05:53:14;;;;;;;31.65;29.25;;;7.70;60.10;;;;;;5092796;28;20229;-76
2021/04/26 05:55:41;;;;;;;30.17;28.00;;;7.50;62.00;;;;;;5092441;28;20702;-76
2021/04/26 05:58:07;;;;;;;28.83;26.63;;;7.70;60.30;;;;;;5093009;28;20300;-76
2021/04/26 06:00:33;;;;;;;30.75;28.50;;;7.90;58.80;;;;;;5092795;28;20215;-76
2021/04/26 06:03:00;;;;;;;28.98;27.17;;;7.80;58.30;;;;;;5092586;28;20660;-77
2021/04/26 06:05:26;;;;;;;30.88;27.98;;;7.80;58.50;;;;;;5091981;28;20199;-79
2021/04/26 06:07:54;;;;;;;33.08;30.17;;;7.90;58.00;;;;;;5092601;28;20617;-76
2021/04/26 06:10:20;;;;;;;29.73;27.92;;;7.90;57.80;;;;;;5092674;28;20244;-76
2021/04/26 06:12:47;;;;;;;32.33;30.13;;;7.80;59.10;;;;;;5092551;28;20204;-77
2021/04/26 06:15:13;;;;;;;31.00;28.48;;;7.80;58.90;;;;;;5092542;28;20222;-77
2021/04/26 06:17:40;;;;;;;30.65;28.38;;;7.80;58.30;;;;;;5092116;28;20208;-77
2021/04/26 06:20:07;;;;;;;28.60;26.60;;;7.80;57.80;;;;;;5092480;28;20305;-77
2021/04/26 06:22:34;;;;;;;29.77;27.85;;;7.80;57.80;;;;;;5092455;28;20339;-77
2021/04/26 06:25:01;;;;;;;30.48;28.38;;;7.80;57.90;;;;;;5091939;28;20199;-77
2021/04/26 06:27:27;;;;;;;30.60;28.50;;;7.90;57.70;;;;;;5091850;28;20195;-77
2021/04/26 06:29:54;;;;;;;30.30;28.20;;;7.90;58.80;;;;;;5092289;28;20554;-77
2021/04/26 06:32:23;;;;;;;30.48;28.27;;;8.10;57.70;;;;;;5092321;28;20204;-77
2021/04/26 06:34:49;;;;;;;32.55;30.20;;;8.10;57.90;;;;;;5092165;28;20229;-77
2021/04/26 06:37:16;;;;;;;29.98;27.98;;;8.20;57.10;;;;;;5091669;28;20197;-77
2021/04/26 06:39:42;;;;;;;29.20;26.90;;;8.20;57.40;;;;;;5092305;28;20198;-77
2021/04/26 06:42:10;;;;;;;31.80;29.42;;;8.20;57.00;;;;;;5092225;28;20256;-77
2021/04/26 06:44:36;;;;;;;29.10;27.10;;;8.20;57.10;;;;;;5092353;28;20280;-78
2021/04/26 06:47:04;;;;;;;30.77;28.83;;;8.20;57.10;;;;;;5091363;28;20290;-77
2021/04/26 06:49:31;;;;;;;32.20;29.80;;;8.30;56.80;;;;;;5092064;28;20191;-77
2021/04/26 06:51:57;;;;;;;31.65;29.10;;;8.30;56.80;;;;;;5092188;28;20254;-78
2021/04/26 06:54:23;;;;;;;30.60;28.45;;;8.50;56.50;;;;;;5092246;28;20649;-76
2021/04/26 06:56:50;;;;;;;33.13;30.70;;;8.60;56.10;;;;;;5091481;28;20621;-76
2021/04/26 06:59:17;;;;;;;31.23;28.90;;;8.60;56.00;;;;;;5092038;28;20198;-76
2021/04/26 07:01:43;;;;;;;30.80;28.67;;;8.50;56.10;;;;;;5091797;28;20219;-77
2021/04/26 07:04:10;;;;;;;31.75;29.23;;;8.40;56.70;;;;;;5092274;28;20237;-76
2021/04/26 07:06:36;;;;;;;32.30;28.85;;;8.40;56.70;;;;;;5091539;28;20195;-76
2021/04/26 07:09:04;;;;;;;31.98;29.40;;;8.60;56.80;;;;;;5092021;28;20195;-76
2021/04/26 07:11:30;;;;;;;33.72;30.42;;;8.70;56.30;;;;;;5091800;28;20250;-76
2021/04/26 07:13:57;;;;;;;29.95;27.95;;;8.90;55.50;;;;;;5091906;28;20214;-76
2021/04/26 07:16:24;;;;;;;30.13;27.90;;;8.90;55.80;;;;;;5093100;28;20735;-76
2021/04/26 07:18:50;;;;;;;31.20;28.65;;;8.70;56.00;;;;;;5096027;28;20672;-76
2021/04/26 07:21:17;;;;;;;30.80;28.80;;;8.70;56.20;;;;;;5095831;28;20305;-76
2021/04/26 07:23:43;;;;;;;30.58;28.38;;;8.90;55.80;;;;;;5095347;28;20195;-76
2021/04/26 07:26:09;;;;;;;30.42;28.10;;;9.00;55.40;;;;;;5095481;28;20298;-76
2021/04/26 07:28:36;;;;;;;33.05;30.95;;;9.00;55.40;;;;;;5095362;28;20257;-76
2021/04/26 07:31:02;;;;;;;29.77;27.88;;;9.00;55.00;;;;;;5095438;28;20211;-76
2021/04/26 07:33:29;;;;;;;32.75;30.27;;;9.00;54.90;;;;;;5095635;28;20258;-77
2021/04/26 07:35:56;;;;;;;30.20;27.92;;;9.10;54.90;;;;;;5095129;28;20195;-76
2021/04/26 07:38:22;;;;;;;29.85;27.92;;;9.30;54.60;;;;;;5095658;28;20670;-76
2021/04/26 07:40:48;;;;;;;30.55;28.50;;;9.40;54.10;;;;;;5095471;28;20548;-76
2021/04/26 07:43:15;;;;;;;30.60;28.50;;;9.50;53.80;;;;;;5095563;28;20621;-76
2021/04/26 07:45:41;;;;;;;29.42;27.33;;;9.50;53.70;;;;;;5094491;28;20242;-76
2021/04/26 07:48:08;;;;;;;31.42;28.73;;;9.50;54.10;;;;;;5095387;28;20211;-77
2021/04/26 07:50:36;;;;;;;31.13;28.77;;;9.60;53.80;;;;;;5095305;28;20230;-76
2021/04/26 07:53:02;;;;;;;30.63;28.70;;;9.60;53.70;;;;;;5095751;28;20644;-76
2021/04/26 07:55:29;;;;;;;32.15;29.60;;;9.70;53.50;;;;;;5094803;28;20206;-76
2021/04/26 07:57:55;;;;;;;30.85;28.65;;;9.60;53.50;;;;;;5095152;28;20199;-76
2021/04/26 08:00:22;;;;;;;31.58;28.98;;;9.50;53.80;;;;;;5095112;28;20799;-76
2021/04/26 08:02:48;;;;;;;32.42;29.40;;;9.70;53.80;;;;;;5095192;28;20238;-76
2021/04/26 08:05:15;;;;;;;33.38;30.77;;;9.80;53.70;;;;;;5094973;28;20204;-76
2021/04/26 08:07:42;;;;;;;31.98;29.25;;;9.90;53.40;;;;;;5094733;28;20195;-76
2021/04/26 08:10:10;;;;;;;31.15;28.73;;;9.90;53.40;;;;;;5094777;28;20215;-77
2021/04/26 08:12:36;;;;;;;30.83;28.15;;;9.80;53.60;;;;;;5094963;28;20290;-76
2021/04/26 08:15:04;;;;;;;31.08;28.90;;;9.90;53.90;;;;;;5094685;28;20215;-76
2021/04/26 08:17:30;;;;;;;30.70;28.70;;;9.90;54.30;;;;;;5094382;28;20611;-76
2021/04/26 08:19:57;;;;;;;30.92;28.63;;;10.20;52.80;;;;;;5094857;28;20568;-76
2021/04/26 08:22:23;;;;;;;31.20;29.08;;;10.40;52.60;;;;;;5094868;28;20191;-76
2021/04/26 08:24:51;;;;;;;30.33;28.23;;;10.30;53.10;;;;;;5094061;28;20567;-76
2021/04/26 08:27:17;;;;;;;31.38;29.00;;;10.40;53.10;;;;;;5093933;28;20195;-76
2021/04/26 08:29:43;;;;;;;30.58;28.58;;;10.70;53.10;;;;;;5094384;28;20286;-76
2021/04/26 08:32:11;;;;;;;31.05;28.83;;;10.70;52.20;;;;;;5094579;28;20257;-76
2021/04/26 08:34:37;;;;;;;31.65;29.40;;;10.60;52.10;;;;;;5094593;28;20250;-76
2021/04/26 08:37:03;;;;;;;31.00;28.90;;;10.70;52.00;;;;;;5093964;28;20197;-76
2021/04/26 08:39:30;;;;;;;33.05;30.90;;;10.90;51.90;;;;;;5094180;28;20202;-77
2021/04/26 08:41:57;;;;;;;32.25;30.15;;;11.00;51.50;;;;;;5094546;28;20230;-76
2021/04/26 08:44:24;;;;;;;31.25;29.30;;;10.90;51.70;;;;;;5094277;28;20195;-76
2021/04/26 08:46:50;;;;;;;31.23;29.08;;;11.10;51.10;;;;;;5093709;28;20340;-76
2021/04/26 08:49:19;;;;;;;31.70;29.58;;;11.10;50.90;;;;;;5094053;28;20278;-76
2021/04/26 08:51:46;;;;;;;31.90;29.80;;;11.00;51.00;;;;;;5093943;28;20226;-77
2021/04/26 08:54:14;;;;;;;31.60;29.40;;;11.00;51.20;;;;;;5093879;28;20222;-78
2021/04/26 08:56:40;;;;;;;31.75;29.55;;;11.10;51.20;;;;;;5093622;28;20195;-76
2021/04/26 08:59:07;;;;;;;32.03;29.40;;;11.10;51.00;;;;;;5094099;28;20286;-76
2021/04/26 09:01:34;;;;;;;32.53;30.42;;;11.20;50.90;;;;;;5094030;28;20681;-77
2021/04/26 09:04:09;;;;;;;31.95;29.85;;;11.20;51.00;;;;;;5093975;28;20196;-76
2021/04/26 09:06:52;;;;;;;32.40;29.90;;;11.30;50.90;;;;;;5093053;28;20202;-76
2021/04/26 09:09:36;;;;;;;30.83;28.63;;;11.40;50.70;;;;;;5094008;28;20198;-76
2021/04/26 09:12:03;;;;;;;32.97;30.60;;;11.60;50.30;;;;;;5093778;28;20696;-76
2021/04/26 09:14:36;;;;;;;31.80;29.70;;;11.60;50.20;;;;;;5093607;28;20560;-76
2021/04/26 09:17:25;;;;;;;33.90;31.50;;;11.70;50.10;;;;;;5093219;28;20453;-76
2021/04/26 09:19:51;;;;;;;31.55;29.50;;;11.90;50.10;;;;;;5093599;28;20810;-77
2021/04/26 09:22:37;;;;;;;29.80;27.90;;;12.00;49.80;;;;;;5093532;28;20267;-77
2021/04/26 09:25:19;;;;;;;31.67;29.57;;;12.20;49.40;;;;;;5093102;28;20223;-77
2021/04/26 09:27:51;;;;;;;32.40;30.00;;;12.30;49.10;;;;;;5093204;28;20643;-77
2021/04/26 09:30:41;;;;;;;32.17;29.57;;;12.40;49.70;;;;;;5093053;28;20998;-77
2021/04/26 09:33:19;;;;;;;31.90;29.63;;;12.50;48.90;;;;;;5093329;28;20450;-77
2021/04/26 09:35:56;;;;;;;31.30;29.10;;;12.60;48.20;;;;;;5092731;28;20453;-77
2021/04/26 09:38:27;;;;;;;30.27;28.17;;;12.60;48.10;;;;;;5092665;28;20585;-77
2021/04/26 09:41:08;;;;;;;31.67;29.17;;;12.80;47.90;;;;;;5093091;28;20974;-77
2021/04/26 09:43:34;;;;;;;32.57;29.80;;;12.80;48.20;;;;;;5093232;28;20528;-77
2021/04/26 09:46:01;;;;;;;31.57;29.20;;;12.80;48.60;;;;;;5092533;28;20476;-77
2021/04/26 09:48:29;;;;;;;31.00;28.70;;;12.80;48.20;;;;;;5092813;28;20459;-77
2021/04/26 09:50:57;;;;;;;30.93;28.77;;;12.90;47.90;;;;;;5092815;28;20473;-77
2021/04/26 09:53:25;;;;;;;32.53;30.33;;;12.70;48.10;;;;;;5093027;28;20535;-77
2021/04/26 09:55:54;;;;;;;32.13;29.83;;;12.80;48.20;;;;;;5092261;28;20457;-77
2021/04/26 09:58:21;;;;;;;33.77;30.53;;;13.10;48.10;;;;;;5092843;28;20453;-77
2021/04/26 10:00:47;;;;;;;32.47;30.00;;;13.20;47.50;;;;;;5092513;28;21046;-77
2021/04/26 10:03:16;;;;;;;33.00;30.40;;;13.30;47.10;;;;;;5092771;28;20468;-77
2021/04/26 10:05:43;;;;;;;33.33;31.23;;;13.20;47.10;;;;;;5092263;28;20459;-77
2021/04/26 10:08:11;;;;;;;32.17;30.00;;;13.10;47.20;;;;;;5092849;28;20507;-77
2021/04/26 10:10:39;;;;;;;31.37;29.07;;;13.10;47.80;;;;;;5092687;28;20477;-77
2021/04/26 10:13:05;;;;;;;32.03;29.60;;;13.00;47.60;;;;;;5092519;28;20453;-77
2021/04/26 10:15:32;;;;;;;34.00;31.47;;;12.90;48.30;;;;;;5091876;28;20549;-77
2021/04/26 10:18:01;;;;;;;32.07;29.50;;;13.00;48.50;;;;;;5092653;28;21010;-77
2021/04/26 10:20:40;;;;;;;34.00;31.00;;;13.20;47.80;;;;;;5092469;28;20469;-76
2021/04/26 10:23:37;;;;;;;32.23;29.43;;;13.40;47.60;;;;;;5092509;28;20449;-77
2021/04/26 10:26:04;;;;;;;31.33;29.20;;;13.50;47.80;;;;;;5091840;28;20981;-76
2021/04/26 10:28:32;;;;;;;31.90;29.60;;;13.50;47.90;;;;;;5092329;28;20524;-77
2021/04/26 10:31:02;;;;;;;32.27;29.50;;;13.80;47.80;;;;;;5092354;28;20895;-78
2021/04/26 10:33:55;;;;;;;31.00;28.70;;;13.90;47.10;;;;;;5092303;28;20456;-77
2021/04/26 10:36:45;;;;;;;30.00;27.90;;;14.10;44.50;;;;;;5091851;28;20966;-78
2021/04/26 10:39:14;;;;;;;31.10;28.90;;;14.20;43.70;;;;;;5092199;28;20888;-77
2021/04/26 10:41:59;;;;;;;30.13;28.10;;;14.10;44.20;;;;;;5092383;28;21005;-77
2021/04/26 10:44:51;;;;;;;29.40;27.50;;;14.30;44.70;;;;;;5092448;28;20469;-76
2021/04/26 10:47:36;;;;;;;32.53;30.20;;;14.60;44.70;;;;;;5091442;28;21029;-77
2021/04/26 10:50:31;;;;;;;30.77;28.77;;;14.30;45.00;;;;;;5090709;28;20452;-77
2021/04/26 10:53:00;;;;;;;33.00;30.57;;;14.00;46.10;;;;;;5096592;28;20484;-77
2021/04/26 10:55:53;;;;;;;31.60;29.40;;;13.90;46.20;;;;;;5095997;28;20487;-78
2021/04/26 10:58:34;;;;;;;30.40;28.50;;;13.80;46.90;;;;;;5096449;28;20453;-77
2021/04/26 11:01:01;;;;;;;33.43;31.20;;;13.90;46.70;;;;;;5096298;28;20560;-76
2021/04/26 11:03:39;;;;;;;33.67;31.00;;;14.10;46.20;;;;;;5096138;28;20452;-77
2021/04/26 11:06:16;;;;;;;31.63;29.23;;;14.20;46.10;;;;;;5095659;28;20518;-76
2021/04/26 11:08:48;;;;;;;32.60;29.67;;;14.30;45.30;;;;;;5096342;28;20969;-76
2021/04/26 11:11:19;;;;;;;31.73;29.43;;;14.50;45.50;;;;;;5096024;28;20469;-77
2021/04/26 11:13:54;;;;;;;31.17;28.80;;;14.60;45.20;;;;;;5095938;28;20484;-77
2021/04/26 11:16:22;;;;;;;31.83;29.80;;;14.70;45.20;;;;;;5095430;28;20528;-77
2021/04/26 11:19:09;;;;;;;31.90;29.40;;;14.70;45.30;;;;;;5096008;28;20453;-77
2021/04/26 11:21:56;;;;;;;31.97;29.67;;;14.80;45.30;;;;;;5095976;28;20473;-77
2021/04/26 11:25:05;;;;;;;31.83;29.60;;;14.80;45.00;;;;;;5095406;28;20517;-77
2021/04/26 11:27:40;;;;;;;32.27;30.00;;;14.90;44.80;;;;;;5095508;28;20478;-77
2021/04/26 11:30:22;;;;;;;31.60;29.60;;;14.80;44.70;;;;;;5095464;28;21055;-77
2021/04/26 11:33:06;;;;;;;33.43;30.80;;;14.80;44.90;;;;;;5095630;28;20448;-77
2021/04/26 11:35:34;;;;;;;32.40;30.20;;;15.00;44.80;;;;;;5094927;28;20468;-77
2021/04/26 11:38:01;;;;;;;32.60;30.10;;;15.20;42.90;;;;;;5095611;28;20457;-77
2021/04/26 11:40:30;;;;;;;31.10;29.20;;;15.00;43.40;;;;;;5095346;28;20473;-79
2021/04/26 11:43:05;;;;;;;31.10;28.90;;;15.00;43.80;;;;;;5095624;28;20456;-77
2021/04/26 11:45:33;;;;;;;31.10;28.70;;;15.10;43.40;;;;;;5094705;28;20441;-77
2021/04/26 11:47:59;;;;;;;32.60;30.10;;;15.20;43.70;;;;;;5095343;28;20457;-77
2021/04/26 11:50:26;;;;;;;33.07;30.73;;;15.20;43.70;;;;;;5095220;28;20494;-77
2021/04/26 11:52:53;;;;;;;32.27;29.93;;;15.30;43.20;;;;;;5095466;28;20445;-76
2021/04/26 11:55:23;;;;;;;32.53;30.23;;;15.20;43.80;;;;;;5094950;28;20572;-77
2021/04/26 11:57:51;;;;;;;31.50;29.10;;;15.20;43.70;;;;;;5094788;28;20505;-77
2021/04/26 12:00:22;;;;;;;30.80;28.90;;;15.40;43.50;;;;;;5095141;28;21013;-77
2021/04/26 12:02:50;;;;;;;32.87;30.40;;;15.40;43.40;;;;;;5094539;28;20879;-77
2021/04/26 12:05:20;;;;;;;32.13;29.73;;;15.50;43.40;;;;;;5095029;28;20528;-77
2021/04/26 12:07:46;;;;;;;31.13;28.77;;;15.70;42.80;;;;;;5094550;28;20460;-77
2021/04/26 12:10:15;;;;;;;30.90;28.43;;;15.80;42.30;;;;;;5094830;28;20530;-77
2021/04/26 12:12:42;;;;;;;31.77;29.57;;;15.70;42.00;;;;;;5094919;28;20480;-77
2021/04/26 12:15:12;;;;;;;32.00;29.37;;;15.80;41.90;;;;;;5094804;28;20473;-77
2021/04/26 12:17:40;;;;;;;32.27;30.07;;;15.90;41.50;;;;;;5094385;28;20548;-77
2021/04/26 12:20:14;;;;;;;31.97;29.63;;;16.00;41.50;;;;;;5094663;28;21013;-78
2021/04/26 12:22:41;;;;;;;30.73;28.57;;;16.20;41.30;;;;;;5094600;28;20588;-77
2021/04/26 12:25:09;;;;;;;32.50;30.40;;;16.20;41.10;;;;;;5094167;28;20457;-77
2021/04/26 12:27:36;;;;;;;31.30;29.10;;;16.20;40.30;;;;;;5094226;28;20519;-77
2021/04/26 12:30:12;;;;;;;30.67;28.67;;;16.40;39.70;;;;;;5094633;28;20469;-77
2021/04/26 12:32:40;;;;;;;31.50;29.40;;;16.20;40.00;;;;;;5094545;28;20543;-77
2021/04/26 12:35:08;;;;;;;30.70;28.73;;;16.20;40.20;;;;;;5094391;28;20477;-77
2021/04/26 12:37:36;;;;;;;31.47;29.47;;;16.40;40.10;;;;;;5093947;28;20506;-77
2021/04/26 12:40:22;;;;;;;31.20;29.03;;;16.50;39.80;;;;;;5094383;28;20472;-76
2021/04/26 12:42:50;;;;;;;30.40;28.30;;;16.70;39.50;;;;;;5094461;28;20459;-77
2021/04/26 12:45:22;;;;;;;30.70;28.50;;;16.60;39.00;;;;;;5094094;28;20806;-77